Time;durP1;ratioP1;P1;durP2;ratioP2;P2;SDS_P1;SDS_P2;PMS_P1;PMS_P2;Temp;Humidity;BMP_temperature;BMP_pressure;BME280_temperature;BME280_humidity;BME280_pressure;Samples;Min_cycle;Max_cycle;Signal;HPM_P1;HPM_P2
2022/10/04 00:01:58;;;;;;;0.70;0.70;;;;;;;10.65;72.66;94866.94;5130332;27;20232;-76
2022/10/04 00:04:28;;;;;;;0.80;0.80;;;;;;;10.64;72.82;94876.97;5130013;27;20532;-76
2022/10/04 00:07:01;;;;;;;1.33;0.93;;;;;;;10.58;73.51;94878.25;5130183;27;20208;-78
2022/10/04 00:09:36;;;;;;;0.40;0.40;;;;;;;10.56;73.11;94864.22;5129814;28;20692;-77
2022/10/04 00:12:04;;;;;;;1.00;0.93;;;;;;;10.52;73.46;94879.53;5129945;28;20723;-77
2022/10/04 00:14:36;;;;;;;0.65;0.55;;;;;;;10.55;73.16;94873.47;5130147;28;20209;-75
2022/10/04 00:17:09;;;;;;;1.15;0.70;;;;;;;10.50;72.90;94870.94;5130495;28;20205;-78
2022/10/04 00:19:43;;;;;;;0.63;0.63;;;;;;;10.51;73.31;94869.03;5129869;28;20675;-75
2022/10/04 00:22:19;;;;;;;0.50;0.50;;;;;;;10.54;72.71;94871.88;5130407;28;20287;-76
2022/10/04 00:25:20;;;;;;;12.80;1.42;;;;;;;10.56;73.39;94866.94;5130431;28;20209;-76
2022/10/04 00:28:24;;;;;;;0.57;0.57;;;;;;;10.56;72.46;94869.66;5130261;28;20221;-77
2022/10/04 00:31:20;;;;;;;1.63;0.50;;;;;;;10.57;71.81;94855.00;5129808;28;20667;-75
2022/10/04 00:33:50;;;;;;;1.70;0.80;;;;;;;10.57;71.71;94848.78;5127799;27;20213;-74
2022/10/04 00:36:40;;;;;;;1.50;0.63;;;;;;;10.58;71.72;94856.59;5130074;28;20300;-73
2022/10/04 00:39:38;;;;;;;0.77;0.77;;;;;;;10.53;71.01;94851.31;5116268;28;20201;-75
2022/10/04 00:42:37;;;;;;;2.70;1.15;;;;;;;10.53;71.30;94837.78;5129416;28;20316;-76
2022/10/04 00:45:12;;;;;;;0.60;0.60;;;;;;;10.35;71.97;94836.22;5122552;28;20250;-76
2022/10/04 00:48:01;;;;;;;3.55;0.68;;;;;;;10.31;72.03;94833.38;5129920;28;20286;-76
2022/10/04 00:50:34;;;;;;;0.68;0.68;;;;;;;10.19;72.45;94827.00;5129601;28;20290;-75
2022/10/04 00:53:11;;;;;;;0.85;0.57;;;;;;;10.24;72.41;94824.16;5129529;28;20241;-74
2022/10/04 00:55:44;;;;;;;0.95;0.60;;;;;;;10.18;72.37;94819.97;5130074;28;20340;-77
2022/10/04 00:58:17;;;;;;;0.60;0.60;;;;;;;10.16;72.46;94817.56;5130139;28;20197;-74
2022/10/04 01:00:48;;;;;;;0.82;0.70;;;;;;;10.12;72.19;94821.22;5129687;28;20254;-74
2022/10/04 01:03:20;;;;;;;3.92;1.05;;;;;;;10.16;71.48;94819.50;5129271;28;20200;-75
2022/10/04 01:05:52;;;;;;;0.57;0.57;;;;;;;10.18;71.25;94822.69;5129925;28;20204;-75
2022/10/04 01:08:27;;;;;;;0.52;0.52;;;;;;;10.13;71.26;94817.41;5129601;28;20316;-78
2022/10/04 01:10:58;;;;;;;1.05;0.90;;;;;;;10.09;71.53;94819.97;5129784;28;20214;-76
2022/10/04 01:13:30;;;;;;;0.77;0.60;;;;;;;10.02;71.61;94821.56;5128984;28;20685;-75
2022/10/04 01:16:01;;;;;;;0.57;0.57;;;;;;;10.11;71.35;94822.38;5132295;27;20258;-74
2022/10/04 01:18:31;;;;;;;2.67;0.73;;;;;;;10.06;72.02;94825.22;5133581;27;20267;-74
2022/10/04 01:21:00;;;;;;;0.85;0.80;;;;;;;9.98;72.28;94827.59;5133089;27;20217;-74
2022/10/04 01:23:41;;;;;;;0.65;0.65;;;;;;;10.12;72.24;94832.06;5133356;27;20228;-75
2022/10/04 01:26:41;;;;;;;0.43;0.43;;;;;;;10.11;71.47;94827.78;5132836;27;20201;-75
2022/10/04 01:29:12;;;;;;;0.93;0.93;;;;;;;10.05;71.86;94823.63;5131188;27;20229;-74
2022/10/04 01:31:41;;;;;;;0.40;0.40;;;;;;;10.01;72.02;94814.56;5133162;27;20201;-75
2022/10/04 01:34:09;;;;;;;0.60;0.55;;;;;;;9.99;73.00;94817.56;5133579;27;20242;-77
2022/10/04 01:36:36;;;;;;;0.98;0.75;;;;;;;9.87;71.96;94818.22;5133320;27;20320;-77
2022/10/04 01:39:05;;;;;;;0.50;0.50;;;;;;;9.86;71.39;94819.34;5132978;27;20737;-76
2022/10/04 01:41:40;;;;;;;0.82;0.82;;;;;;;9.86;71.04;94824.75;5133325;27;20790;-77
2022/10/04 01:44:12;;;;;;;1.23;1.13;;;;;;;9.85;70.77;94819.66;5132610;27;20261;-74
2022/10/04 01:46:40;;;;;;;1.27;0.70;;;;;;;9.79;70.87;94813.63;5132849;27;20265;-74
2022/10/04 01:49:10;;;;;;;1.77;0.80;;;;;;;9.81;70.67;94821.41;5132046;27;20241;-76
2022/10/04 01:51:43;;;;;;;0.57;0.57;;;;;;;9.83;71.08;94809.16;5133004;27;20295;-75
2022/10/04 01:54:15;;;;;;;0.88;0.77;;;;;;;9.75;71.13;94817.25;5132912;27;20201;-76
2022/10/04 01:56:46;;;;;;;0.52;0.52;;;;;;;9.78;70.31;94812.03;5132382;27;20201;-76
2022/10/04 01:59:19;;;;;;;0.80;0.80;;;;;;;9.79;70.76;94819.03;5132559;27;20257;-75
2022/10/04 02:01:50;;;;;;;0.65;0.65;;;;;;;9.86;71.07;94815.81;5132395;27;20204;-77
2022/10/04 02:04:20;;;;;;;1.00;0.73;;;;;;;9.75;71.35;94818.06;5132326;27;20257;-76
2022/10/04 02:06:53;;;;;;;0.60;0.60;;;;;;;9.75;71.55;94819.97;5132468;27;20451;-79
2022/10/04 02:09:25;;;;;;;6.88;0.90;;;;;;;9.73;71.79;94831.09;5132234;27;20678;-75
2022/10/04 02:11:54;;;;;;;0.95;0.65;;;;;;;9.70;72.63;94833.66;5132652;27;20204;-74
2022/10/04 02:14:24;;;;;;;0.28;0.28;;;;;;;9.68;72.63;94839.38;5131807;27;20668;-74
2022/10/04 02:16:52;;;;;;;0.90;0.85;;;;;;;9.74;72.89;94837.31;5132174;27;20345;-77
2022/10/04 02:19:20;;;;;;;0.57;0.57;;;;;;;9.75;72.57;94833.50;5131971;27;20641;-76
2022/10/04 02:21:48;;;;;;;3.67;0.75;;;;;;;9.67;73.00;94837.78;5132914;27;20197;-76
2022/10/04 02:24:16;;;;;;;0.50;0.50;;;;;;;9.60;73.99;94843.66;5131999;27;20756;-77
2022/10/04 02:26:49;;;;;;;1.27;0.80;;;;;;;9.60;73.64;94843.66;5131180;27;20196;-76
2022/10/04 02:29:17;;;;;;;0.73;0.73;;;;;;;9.56;74.09;94836.50;5131639;27;20743;-75
2022/10/04 02:34:29;;;;;;;0.60;0.60;;;;;;;9.55;74.47;94840.31;5120152;27;20192;-74
2022/10/04 02:36:56;;;;;;;0.82;0.80;;;;;;;9.51;75.08;94844.75;5132161;27;20205;-75
2022/10/04 02:39:27;;;;;;;0.70;0.70;;;;;;;9.55;75.25;94848.44;5131394;27;20454;-74
2022/10/04 02:41:58;;;;;;;0.68;0.60;;;;;;;9.55;75.39;94851.13;5131704;27;20228;-76
2022/10/04 02:44:29;;;;;;;1.00;0.70;;;;;;;9.53;75.89;94858.75;5131893;27;20193;-76
2022/10/04 02:47:06;;;;;;;0.93;0.88;;;;;;;9.49;75.78;94850.47;5130601;27;20197;-74
2022/10/04 02:49:37;;;;;;;0.80;0.80;;;;;;;9.50;76.27;94859.38;5131067;27;20285;-77
2022/10/04 02:52:09;;;;;;;0.50;0.50;;;;;;;9.51;75.89;94858.28;5131673;27;20697;-74
2022/10/04 02:54:42;;;;;;;0.55;0.55;;;;;;;9.46;76.48;94858.41;5131891;27;20233;-75
2022/10/04 02:57:16;;;;;;;0.82;0.70;;;;;;;9.52;76.32;94862.59;5131295;27;20193;-75
2022/10/04 02:59:44;;;;;;;0.60;0.60;;;;;;;9.54;76.28;94871.97;5131486;27;20288;-75
2022/10/04 03:02:23;;;;;;;1.08;0.93;;;;;;;9.56;76.23;94868.97;5131630;27;20269;-76
2022/10/04 03:04:51;;;;;;;0.88;0.88;;;;;;;9.56;76.13;94877.06;5131178;27;20245;-75
2022/10/04 03:07:19;;;;;;;1.13;0.80;;;;;;;9.51;76.39;94877.22;5131392;27;20201;-75
2022/10/04 03:09:46;;;;;;;0.80;0.70;;;;;;;9.51;76.43;94872.59;5130568;27;20236;-75
2022/10/04 03:12:15;;;;;;;0.82;0.82;;;;;;;9.41;77.05;94877.50;5131245;27;20293;-76
2022/10/04 03:14:43;;;;;;;1.05;0.95;;;;;;;9.34;77.03;94867.13;5130724;27;20227;-75
2022/10/04 03:17:11;;;;;;;2.78;0.93;;;;;;;9.35;77.06;94879.53;5131058;27;20207;-77
2022/10/04 03:19:38;;;;;;;1.27;1.08;;;;;;;9.26;77.77;94886.84;5130888;27;20201;-75
2022/10/04 03:22:09;;;;;;;0.65;0.65;;;;;;;9.24;77.62;94870.94;5131192;27;20197;-75
2022/10/04 03:24:39;;;;;;;2.10;1.10;;;;;;;9.21;77.67;94874.25;5131178;27;20209;-75
2022/10/04 03:27:09;;;;;;;0.80;0.80;;;;;;;9.20;77.61;94882.66;5130732;27;20197;-75
2022/10/04 03:29:43;;;;;;;0.70;0.70;;;;;;;9.19;77.57;94881.88;5130106;27;20213;-76
2022/10/04 03:32:13;;;;;;;0.80;0.75;;;;;;;9.24;77.00;94889.84;5131297;27;20789;-75
2022/10/04 03:34:44;;;;;;;0.75;0.73;;;;;;;9.21;77.01;94889.66;5131509;27;20193;-75
2022/10/04 03:37:15;;;;;;;0.98;0.82;;;;;;;9.18;77.08;94885.69;5131191;27;20945;-75
2022/10/04 03:39:43;;;;;;;0.60;0.60;;;;;;;9.12;77.30;94892.34;5131318;27;20190;-76
2022/10/04 03:42:15;;;;;;;1.10;1.00;;;;;;;9.26;76.84;94886.84;5131441;27;20217;-77
2022/10/04 03:44:45;;;;;;;0.80;0.80;;;;;;;9.29;76.86;94896.22;5131128;27;20256;-77
2022/10/04 03:47:16;;;;;;;0.70;0.50;;;;;;;9.43;76.14;94880.69;5130956;27;20254;-76
2022/10/04 03:49:45;;;;;;;0.82;0.80;;;;;;;9.34;76.34;94893.38;5130433;27;20640;-76
2022/10/04 03:52:21;;;;;;;0.90;0.90;;;;;;;9.25;76.03;94886.03;5131249;27;20672;-75
2022/10/04 03:54:49;;;;;;;0.73;0.73;;;;;;;9.44;75.65;94896.59;5130994;27;20228;-80
2022/10/04 03:57:16;;;;;;;1.23;0.98;;;;;;;9.35;76.51;94897.66;5131050;27;20576;-81
2022/10/04 03:59:45;;;;;;;0.77;0.75;;;;;;;9.29;76.61;94896.22;5131089;27;20300;-77
2022/10/04 04:02:19;;;;;;;0.93;0.93;;;;;;;9.34;76.48;94904.19;5131144;27;20197;-77
2022/10/04 04:04:53;;;;;;;1.25;1.13;;;;;;;9.22;77.16;94908.28;5131070;27;20249;-77
2022/10/04 04:07:25;;;;;;;0.57;0.57;;;;;;;9.31;76.34;94902.09;5130973;27;20588;-77
2022/10/04 04:09:58;;;;;;;1.10;1.00;;;;;;;9.23;76.40;94899.06;5130663;28;20220;-80
2022/10/04 04:12:35;;;;;;;0.47;0.47;;;;;;;9.37;75.92;94909.78;5130985;27;20269;-79
2022/10/04 04:15:06;;;;;;;1.25;1.00;;;;;;;9.35;75.98;94911.19;5130928;27;20237;-79
2022/10/04 04:17:40;;;;;;;1.20;1.05;;;;;;;9.29;76.09;94912.47;5130956;28;20189;-78
2022/10/04 04:20:17;;;;;;;2.97;1.00;;;;;;;9.22;76.37;94918.28;5130561;27;20224;-78
2022/10/04 04:22:48;;;;;;;0.85;0.80;;;;;;;9.19;76.59;94922.41;5130576;27;20627;-77
2022/10/04 04:25:17;;;;;;;0.50;0.50;;;;;;;9.23;76.03;94922.59;5131084;28;20237;-76
2022/10/04 04:27:47;;;;;;;0.90;0.88;;;;;;;9.22;76.12;94924.50;5130596;27;20644;-78
2022/10/04 04:30:18;;;;;;;0.82;0.82;;;;;;;9.17;76.59;94930.03;5129882;28;20213;-77
2022/10/04 04:32:50;;;;;;;1.40;1.30;;;;;;;9.16;76.93;94920.31;5128701;27;20856;-78
2022/10/04 04:35:30;;;;;;;0.60;0.60;;;;;;;9.15;76.37;94929.56;5127982;28;20205;-81
2022/10/04 04:38:16;;;;;;;2.60;1.35;;;;;;;9.21;76.38;94933.72;5129289;27;20258;-78
2022/10/04 04:40:43;;;;;;;0.60;0.60;;;;;;;9.27;75.65;94920.88;5128302;28;20688;-76
2022/10/04 04:43:17;;;;;;;1.33;0.80;;;;;;;9.29;75.90;94923.28;5129378;28;20902;-76
2022/10/04 04:45:48;;;;;;;1.40;1.17;;;;;;;9.31;75.73;94931.84;5129590;27;20228;-78
2022/10/04 04:48:17;;;;;;;1.27;1.00;;;;;;;9.32;75.92;94930.72;5129407;28;20320;-78
2022/10/04 04:50:50;;;;;;;1.13;0.77;;;;;;;9.41;75.33;94945.91;5132027;27;20244;-76
2022/10/04 04:53:22;;;;;;;1.58;1.20;;;;;;;9.45;75.27;94932.53;5134308;27;20253;-78
2022/10/04 04:55:52;;;;;;;3.42;1.50;;;;;;;9.46;75.75;94939.53;5137204;27;20604;-77
2022/10/04 04:58:21;;;;;;;5.20;0.90;;;;;;;9.47;75.85;94941.13;5138394;27;20215;-78
2022/10/04 05:00:56;;;;;;;1.13;1.02;;;;;;;9.61;75.18;94944.53;5139615;27;20205;-78
2022/10/04 05:03:24;;;;;;;1.95;1.20;;;;;;;9.58;75.27;94942.44;5133718;27;20281;-76
2022/10/04 05:05:53;;;;;;;1.73;0.90;;;;;;;9.56;75.20;94939.28;5133720;27;20209;-76
2022/10/04 05:08:24;;;;;;;1.45;1.02;;;;;;;10.38;72.29;94940.41;5133518;27;20221;-76
2022/10/04 05:10:57;;;;;;;4.05;1.00;;;;;;;11.42;68.68;94943.75;5133489;27;20213;-76
2022/10/04 05:13:36;;;;;;;1.48;1.15;;;;;;;12.13;65.94;94941.19;5133680;27;20201;-77
2022/10/04 05:16:04;;;;;;;1.40;1.30;;;;;;;13.13;62.68;94935.53;5133735;27;20589;-75
2022/10/04 05:18:33;;;;;;;2.47;1.10;;;;;;;13.36;61.75;94928.59;5133694;27;20253;-76
2022/10/04 05:21:06;;;;;;;1.67;1.15;;;;;;;13.86;60.21;94933.75;5133009;27;20212;-77
2022/10/04 05:23:33;;;;;;;0.90;0.90;;;;;;;13.36;61.17;94934.06;5133419;27;20703;-75
2022/10/04 05:26:03;;;;;;;1.63;0.90;;;;;;;13.06;61.31;94930.66;5133729;27;20287;-76
2022/10/04 05:28:30;;;;;;;0.73;0.73;;;;;;;12.30;64.05;94946.50;5133285;27;20204;-76
2022/10/04 05:31:10;;;;;;;1.33;1.02;;;;;;;11.87;65.49;94954.91;5133635;27;20285;-77
2022/10/04 05:33:40;;;;;;;1.52;1.40;;;;;;;11.31;67.97;94957.66;5133197;27;20196;-77
2022/10/04 05:36:40;;;;;;;3.17;1.13;;;;;;;11.07;68.89;94959.31;5133390;27;20205;-77
2022/10/04 05:39:13;;;;;;;5.05;1.75;;;;;;;10.82;69.83;94958.22;5132707;27;20388;-77
2022/10/04 05:41:49;;;;;;;3.30;1.48;;;;;;;11.30;69.43;94964.19;5133330;27;20207;-77
2022/10/04 05:44:26;;;;;;;1.88;1.00;;;;;;;12.75;64.89;94957.50;5133240;27;20202;-76
2022/10/04 05:46:56;;;;;;;5.15;1.58;;;;;;;13.23;61.79;94959.63;5132960;27;20311;-76
2022/10/04 05:49:26;;;;;;;1.65;1.20;;;;;;;12.37;64.58;94968.50;5132703;27;20324;-77
2022/10/04 05:51:55;;;;;;;1.77;1.30;;;;;;;12.29;65.43;94972.88;5132041;27;20285;-76
2022/10/04 05:54:24;;;;;;;1.83;1.60;;;;;;;11.73;66.32;94976.81;5132827;27;20262;-78
2022/10/04 05:57:20;;;;;;;2.05;1.08;;;;;;;11.43;67.53;94983.31;5132537;27;20201;-77
2022/10/04 06:00:09;;;;;;;1.15;1.00;;;;;;;11.06;68.76;94985.63;5132768;27;20208;-77
2022/10/04 06:03:03;;;;;;;1.45;1.27;;;;;;;10.88;69.58;94992.97;5132001;27;20193;-76
2022/10/04 06:05:42;;;;;;;1.25;1.10;;;;;;;10.99;69.50;94990.72;5131464;27;20201;-76
2022/10/04 06:08:19;;;;;;;2.53;1.15;;;;;;;11.42;68.26;95003.41;5132582;27;20246;-77
2022/10/04 06:11:01;;;;;;;0.70;0.60;;;;;;;11.24;68.57;95003.44;5133350;27;20212;-77
2022/10/04 06:13:58;;;;;;;1.80;1.40;;;;;;;11.61;68.44;95001.13;5121788;27;20245;-76
2022/10/04 06:16:39;;;;;;;0.50;0.50;;;;;;;12.96;63.68;94987.38;5102395;27;20231;-75
2022/10/04 06:19:25;;;;;;;3.22;1.02;;;;;;;14.30;59.49;94988.44;5133003;27;20193;-76
2022/10/04 06:22:11;;;;;;;1.17;1.00;;;;;;;14.41;59.57;94988.81;5132021;27;20748;-77
2022/10/04 06:24:41;;;;;;;4.00;1.00;;;;;;;13.63;59.74;95002.59;5132297;27;20264;-75
2022/10/04 06:27:15;;;;;;;1.27;0.98;;;;;;;14.50;58.18;94986.72;5131995;27;20217;-76
2022/10/04 06:29:46;;;;;;;0.80;0.70;;;;;;;14.23;57.44;95001.84;5132491;27;20189;-76
2022/10/04 06:32:37;;;;;;;0.65;0.65;;;;;;;13.73;59.19;94996.72;5129661;27;20289;-80
2022/10/04 06:35:45;;;;;;;1.30;1.20;;;;;;;12.81;62.74;95011.34;5086086;27;20616;-76
2022/10/04 06:38:33;;;;;;;1.17;1.08;;;;;;;12.59;62.36;95014.38;5123608;27;20185;-77
2022/10/04 06:41:11;;;;;;;2.03;1.15;;;;;;;13.10;61.84;95007.75;5130880;27;20222;-77
2022/10/04 06:43:55;;;;;;;1.05;0.88;;;;;;;13.15;61.13;95004.81;5131693;27;20242;-76
2022/10/04 06:46:30;;;;;;;0.70;0.70;;;;;;;12.78;62.14;95014.72;5130290;27;20300;-77
2022/10/04 06:49:31;;;;;;;1.40;1.17;;;;;;;12.84;62.70;95017.25;5118277;27;20202;-77
2022/10/04 06:52:34;;;;;;;1.92;1.58;;;;;;;12.65;62.34;95023.94;5131785;27;20560;-80
2022/10/04 06:55:37;;;;;;;1.08;0.98;;;;;;;12.73;63.41;95033.94;5130482;27;20242;-80
2022/10/04 06:58:34;;;;;;;1.13;0.68;;;;;;;12.24;64.44;95032.03;5121716;27;20217;-76
2022/10/04 07:01:07;;;;;;;4.22;1.50;;;;;;;12.40;64.12;95030.34;5119837;27;20706;-76
2022/10/04 07:03:41;;;;;;;1.60;1.13;;;;;;;12.43;64.53;95026.97;5128897;27;20382;-76
2022/10/04 07:06:10;;;;;;;0.73;0.73;;;;;;;12.35;64.71;95035.94;5129345;27;20700;-75
2022/10/04 07:08:41;;;;;;;1.25;1.08;;;;;;;12.59;63.19;95036.09;5123529;27;20253;-77
2022/10/04 07:11:15;;;;;;;4.35;1.42;;;;;;;12.65;62.81;95037.53;5125858;27;20228;-72
2022/10/04 07:13:50;;;;;;;0.70;0.70;;;;;;;12.52;63.28;95035.84;5129569;27;20295;-74
2022/10/04 07:16:37;;;;;;;6.65;1.00;;;;;;;12.52;64.02;95041.28;5129796;27;20201;-74
2022/10/04 07:19:23;;;;;;;1.35;0.80;;;;;;;12.42;64.20;95041.66;5129935;27;20197;-75
2022/10/04 07:22:00;;;;;;;0.88;0.88;;;;;;;12.77;63.72;95037.59;5130220;27;20914;-74
2022/10/04 07:24:36;;;;;;;0.73;0.70;;;;;;;12.76;63.46;95046.06;5130414;27;20211;-78
2022/10/04 07:27:10;;;;;;;1.88;1.13;;;;;;;12.73;62.88;95049.44;5130607;27;20728;-76
2022/10/04 07:29:40;;;;;;;1.23;1.13;;;;;;;12.78;62.44;95049.25;5130459;27;20197;-76
2022/10/04 07:32:14;;;;;;;1.02;0.90;;;;;;;13.06;61.40;95052.25;5124297;27;20225;-74
2022/10/04 07:34:46;;;;;;;1.88;1.10;;;;;;;13.24;60.52;95042.06;5130001;27;20205;-77
2022/10/04 07:37:14;;;;;;;1.20;1.10;;;;;;;13.06;60.01;95044.09;5130107;27;20669;-76
2022/10/04 07:39:49;;;;;;;1.73;0.90;;;;;;;12.80;61.86;95058.69;5130356;27;20265;-73
2022/10/04 07:42:25;;;;;;;4.40;1.13;;;;;;;12.48;61.37;95056.66;5129097;27;20249;-75
2022/10/04 07:45:03;;;;;;;0.98;0.88;;;;;;;12.29;62.64;95059.00;5130777;27;20223;-73
2022/10/04 07:47:31;;;;;;;2.00;1.38;;;;;;;12.37;61.53;95069.03;5130709;27;20315;-77
2022/10/04 07:49:58;;;;;;;0.82;0.80;;;;;;;12.58;62.14;95058.97;5130364;27;20587;-74
2022/10/04 07:52:56;;;;;;;1.60;0.80;;;;;;;12.53;62.42;95066.53;5130854;27;20230;-73
2022/10/04 07:55:31;;;;;;;1.98;1.08;;;;;;;12.50;62.22;95065.28;5084533;27;20304;-73
2022/10/04 07:58:21;;;;;;;1.20;1.10;;;;;;;12.61;62.07;95066.47;5130209;27;20197;-74
2022/10/04 08:00:55;;;;;;;0.60;0.60;;;;;;;12.34;62.19;95064.22;5130791;27;20232;-73
2022/10/04 08:03:36;;;;;;;1.77;0.88;;;;;;;12.26;61.53;95075.94;5130832;27;20369;-78
2022/10/04 08:06:12;;;;;;;2.15;1.25;;;;;;;12.58;62.01;95075.28;5130247;27;20296;-75
2022/10/04 08:09:12;;;;;;;1.08;1.00;;;;;;;12.50;61.71;95081.56;5130306;27;20269;-73
2022/10/04 08:11:47;;;;;;;0.90;0.60;;;;;;;12.59;61.47;95079.59;5124919;28;20232;-73
2022/10/04 08:14:29;;;;;;;0.50;0.50;;;;;;;12.64;61.49;95076.69;5130368;28;20295;-74
2022/10/04 08:17:11;;;;;;;2.13;1.17;;;;;;;12.87;60.83;95073.66;5130490;28;20201;-73
2022/10/04 08:19:47;;;;;;;0.77;0.77;;;;;;;12.77;60.00;95069.41;5130281;28;20235;-73
2022/10/04 08:22:27;;;;;;;1.83;1.20;;;;;;;13.13;59.79;95064.19;5130392;28;20224;-73
2022/10/04 08:25:03;;;;;;;0.90;0.90;;;;;;;13.13;58.82;95066.09;5132441;27;20216;-77
2022/10/04 08:30:47;;;;;;;1.67;0.93;;;;;;;13.54;57.38;95057.09;5133544;27;20523;-73
2022/10/04 08:33:27;;;;;;;0.65;0.63;;;;;;;13.51;57.21;95061.31;5134261;27;20201;-76
2022/10/04 08:36:07;;;;;;;0.73;0.73;;;;;;;13.98;56.57;95063.69;5134499;27;20613;-74
2022/10/04 08:38:43;;;;;;;2.10;1.02;;;;;;;13.95;56.18;95053.47;5133317;27;20726;-75
2022/10/04 08:41:40;;;;;;;0.93;0.70;;;;;;;13.89;56.30;95054.84;5133440;27;20208;-72
2022/10/04 08:44:46;;;;;;;1.27;1.00;;;;;;;13.85;56.54;95056.63;5134033;27;20249;-74
2022/10/04 08:47:49;;;;;;;0.68;0.65;;;;;;;14.00;57.15;95042.38;5133772;27;20220;-73
2022/10/04 08:50:54;;;;;;;0.82;0.82;;;;;;;14.08;56.65;95051.56;5133775;27;20236;-73
2022/10/04 08:53:51;;;;;;;2.72;1.13;;;;;;;14.17;56.56;95057.72;5134092;27;20197;-72
2022/10/04 08:56:31;;;;;;;0.80;0.80;;;;;;;13.69;57.12;95058.41;5133511;27;20201;-73
2022/10/04 08:59:25;;;;;;;0.73;0.73;;;;;;;13.76;58.15;95048.56;5133074;27;20204;-74
2022/10/04 09:02:07;;;;;;;1.67;1.00;;;;;;;13.81;58.03;95052.97;5133759;27;20581;-74
2022/10/04 09:05:09;;;;;;;1.42;1.23;;;;;;;13.27;58.50;95053.03;5134529;27;20201;-73
2022/10/04 09:08:10;;;;;;;1.23;0.95;;;;;;;13.70;57.66;95049.09;5084966;27;20237;-72
2022/10/04 09:10:45;;;;;;;1.02;0.90;;;;;;;13.84;56.97;95046.88;5117811;27;20207;-73
2022/10/04 09:13:30;;;;;;;0.52;0.52;;;;;;;13.93;56.54;95049.50;5134362;27;20208;-76
2022/10/04 09:16:08;;;;;;;1.60;1.20;;;;;;;14.03;56.53;95049.88;5133773;27;20280;-75
2022/10/04 09:19:11;;;;;;;2.53;0.70;;;;;;;14.12;55.08;95042.38;5134264;27;20293;-76
2022/10/04 09:21:52;;;;;;;1.13;1.00;;;;;;;14.41;55.74;95043.31;5131454;27;20220;-76
2022/10/04 09:25:08;;;;;;;0.75;0.75;;;;;;;13.82;57.20;95032.78;5133320;27;20659;-76
2022/10/04 09:27:59;;;;;;;6.80;1.30;;;;;;;14.36;56.15;95040.78;5126899;27;20197;-72
2022/10/04 09:30:36;;;;;;;3.53;1.30;;;;;;;14.61;57.33;95044.34;5133235;27;20205;-74
2022/10/04 09:33:25;;;;;;;0.75;0.75;;;;;;;14.77;54.94;95051.44;5133496;27;20213;-75
2022/10/04 09:36:21;;;;;;;2.97;1.40;;;;;;;14.62;56.12;95046.72;5131621;27;20720;-74
2022/10/04 09:39:19;;;;;;;4.25;1.40;;;;;;;14.71;55.77;95050.13;5132742;27;20270;-74
2022/10/04 09:42:21;;;;;;;0.98;0.88;;;;;;;14.36;56.42;95065.31;5131977;27;20254;-76
2022/10/04 09:45:14;;;;;;;0.70;0.70;;;;;;;13.88;57.35;95069.59;5133055;27;20188;-74
2022/10/04 09:47:44;;;;;;;0.80;0.70;;;;;;;13.57;57.67;95055.66;5121927;27;20679;-81
2022/10/04 09:50:36;;;;;;;1.50;1.05;;;;;;;13.32;58.22;95058.28;5132862;27;20700;-75
2022/10/04 09:53:18;;;;;;;1.15;0.90;;;;;;;13.56;58.74;95062.22;5102573;27;20240;-74
2022/10/04 09:56:05;;;;;;;0.88;0.80;;;;;;;14.21;57.67;95048.50;5132781;27;20642;-74
2022/10/04 09:58:54;;;;;;;0.88;0.88;;;;;;;14.44;56.65;95048.88;5131953;27;20258;-72
2022/10/04 10:01:30;;;;;;;0.90;0.90;;;;;;;14.80;55.46;95047.25;5131726;27;20339;-76
2022/10/04 10:04:25;;;;;;;1.45;1.35;;;;;;;14.96;55.70;95053.59;5132411;27;20225;-77
2022/10/04 10:07:15;;;;;;;2.05;1.40;;;;;;;15.11;55.29;95049.34;5120011;27;20221;-74
2022/10/04 10:15:59;;;;;;;1.40;0.98;;;;;;;15.39;54.01;95049.38;5132329;27;20700;-73
2022/10/04 10:18:38;;;;;;;1.00;0.90;;;;;;;15.61;53.19;95051.56;5132518;27;20250;-78
2022/10/04 10:21:23;;;;;;;1.10;1.00;;;;;;;15.60;53.15;95039.84;5132139;27;20221;-75
2022/10/04 10:24:06;;;;;;;0.80;0.77;;;;;;;15.29;54.05;95058.84;5132041;27;20223;-74
2022/10/04 10:26:46;;;;;;;2.63;1.42;;;;;;;15.14;53.85;95056.84;5132255;27;20261;-74
2022/10/04 10:29:37;;;;;;;2.38;1.42;;;;;;;15.16;53.92;95051.84;5131995;27;20188;-75
2022/10/04 10:32:28;;;;;;;1.95;1.40;;;;;;;15.36;53.84;95060.97;5132219;27;20297;-73
2022/10/04 10:35:16;;;;;;;6.03;1.52;;;;;;;15.32;53.35;95052.66;5101640;27;20280;-73
2022/10/04 10:37:59;;;;;;;1.98;1.35;;;;;;;15.31;54.47;95064.72;5132141;27;20201;-73
2022/10/04 10:40:44;;;;;;;1.25;1.00;;;;;;;15.42;54.36;95054.94;5131882;27;20266;-81
2022/10/04 10:43:40;;;;;;;1.70;1.38;;;;;;;15.28;54.10;95059.97;5132158;27;20228;-80
2022/10/04 10:46:22;;;;;;;1.40;1.30;;;;;;;16.07;51.81;95055.53;5131448;27;20225;-74
2022/10/04 10:49:09;;;;;;;1.55;1.38;;;;;;;16.40;50.75;95059.84;5131333;27;20193;-73
2022/10/04 10:52:05;;;;;;;0.93;0.93;;;;;;;15.78;50.10;95055.91;5131463;27;20768;-80
2022/10/04 10:55:02;;;;;;;0.60;0.60;;;;;;;15.20;52.62;95063.63;5131958;27;20275;-76
2022/10/04 10:58:02;;;;;;;2.35;0.70;;;;;;;15.18;53.60;95065.91;5087786;27;20249;-77
2022/10/04 11:00:49;;;;;;;1.80;1.40;;;;;;;15.25;53.85;95066.13;5130750;27;20201;-73
2022/10/04 11:03:34;;;;;;;1.45;1.05;;;;;;;14.92;53.16;95072.56;5131183;27;20196;-72
2022/10/04 11:06:38;;;;;;;4.97;1.15;;;;;;;15.19;52.59;95062.03;5131407;27;20193;-73
2022/10/04 11:09:28;;;;;;;1.10;1.00;;;;;;;15.21;53.45;95066.03;5131268;27;20207;-73
2022/10/04 11:12:18;;;;;;;1.88;1.10;;;;;;;15.04;53.12;95069.00;5131313;27;20261;-73
2022/10/04 11:15:15;;;;;;;1.20;1.05;;;;;;;14.78;54.31;95065.88;5112130;27;20247;-77
2022/10/04 11:18:08;;;;;;;1.77;1.58;;;;;;;14.52;55.75;95068.97;5131289;27;20197;-77
2022/10/04 11:21:01;;;;;;;1.70;1.60;;;;;;;14.81;55.31;95057.81;5131105;27;20269;-74
2022/10/04 11:24:13;;;;;;;1.10;1.00;;;;;;;14.55;54.93;95063.66;5131129;27;20208;-73
2022/10/04 11:27:27;;;;;;;1.00;0.90;;;;;;;14.56;54.87;95067.16;5126249;27;20257;-75
2022/10/04 11:30:08;;;;;;;1.20;1.00;;;;;;;14.49;55.61;95072.38;5061280;28;20202;-73
2022/10/04 11:33:17;;;;;;;1.00;0.90;;;;;;;14.69;55.19;95071.47;5068466;28;20308;-73
2022/10/04 11:36:28;;;;;;;1.15;1.05;;;;;;;15.46;53.69;95064.00;5122297;27;20232;-72
2022/10/04 11:39:05;;;;;;;2.03;1.17;;;;;;;15.87;53.21;95064.72;5048835;28;20273;-74
2022/10/04 11:41:49;;;;;;;1.27;1.02;;;;;;;15.82;51.68;95065.81;5125036;27;20208;-74
2022/10/04 11:44:54;;;;;;;9.30;1.30;;;;;;;16.17;51.57;95063.19;5130996;27;20216;-74
2022/10/04 11:47:41;;;;;;;7.13;1.48;;;;;;;16.07;51.10;95058.25;5130699;27;20499;-75
2022/10/04 11:50:33;;;;;;;0.80;0.70;;;;;;;16.16;50.92;95063.53;5130471;27;20232;-75
2022/10/04 11:53:26;;;;;;;1.23;0.77;;;;;;;15.49;52.28;95066.03;5130471;27;20236;-76
2022/10/04 11:56:05;;;;;;;1.20;1.10;;;;;;;15.94;51.91;95070.41;5130661;27;20235;-74
2022/10/04 11:58:49;;;;;;;1.27;1.17;;;;;;;16.22;50.81;95071.13;5130002;27;20204;-73
2022/10/04 12:01:49;;;;;;;1.08;0.85;;;;;;;15.85;51.85;95067.03;5130091;27;20273;-75
2022/10/04 12:04:35;;;;;;;1.73;1.23;;;;;;;16.08;50.68;95065.31;5130216;27;20250;-75
2022/10/04 12:07:25;;;;;;;1.88;1.67;;;;;;;16.37;51.46;95071.50;5130474;27;20224;-74
2022/10/04 12:10:03;;;;;;;1.33;1.00;;;;;;;16.01;50.67;95067.84;5130604;27;20197;-74
2022/10/04 12:12:59;;;;;;;1.25;0.93;;;;;;;15.56;51.02;95066.28;5130737;27;20223;-74
2022/10/04 12:15:44;;;;;;;3.25;0.85;;;;;;;15.64;51.04;95078.19;5127979;28;20236;-73
2022/10/04 12:18:53;;;;;;;0.73;0.70;;;;;;;15.52;51.98;95065.34;5117375;28;20201;-76
2022/10/04 12:21:45;;;;;;;1.70;1.15;;;;;;;15.69;51.02;95075.22;5129745;28;20263;-73
2022/10/04 12:24:28;;;;;;;1.23;1.13;;;;;;;15.49;52.40;95071.50;5130256;28;20231;-73
2022/10/04 12:27:11;;;;;;;0.93;0.90;;;;;;;15.56;51.65;95069.00;5129757;28;20197;-74
2022/10/04 12:30:02;;;;;;;1.35;1.25;;;;;;;15.66;51.27;95064.19;5117844;28;20205;-73
2022/10/04 12:32:35;;;;;;;1.48;1.05;;;;;;;15.79;50.95;95062.97;5129919;28;20221;-73
2022/10/04 12:35:18;;;;;;;1.20;1.10;;;;;;;16.01;51.37;95070.56;5130094;28;20289;-73
2022/10/04 12:38:11;;;;;;;1.10;0.88;;;;;;;15.72;52.86;95073.69;5130403;28;20208;-73
2022/10/04 12:40:43;;;;;;;0.90;0.90;;;;;;;15.23;52.63;95073.88;5129971;28;20193;-75
2022/10/04 12:43:29;;;;;;;1.73;1.50;;;;;;;15.25;53.36;95080.56;5129357;28;20242;-73
2022/10/04 12:46:04;;;;;;;2.58;1.50;;;;;;;15.10;53.08;95075.03;5128903;28;20224;-75
2022/10/04 12:48:43;;;;;;;4.28;1.92;;;;;;;14.91;53.56;95078.38;5129556;28;20196;-77